createdAt,value
2022-10-23T00:01:31.545Z,0.30
2022-10-23T00:04:01.150Z,0.30
2022-10-23T00:06:29.543Z,0.30
2022-10-23T00:08:56.859Z,0.30
2022-10-23T00:11:30.521Z,0.20
2022-10-23T00:14:02.451Z,0.20
2022-10-23T00:16:30.137Z,0.10
2022-10-23T00:18:57.520Z,0.20
2022-10-23T00:21:25.501Z,0.20
2022-10-23T00:23:52.503Z,0.10
2022-10-23T00:26:19.949Z,0.10
2022-10-23T00:28:53.103Z,0.10
2022-10-23T00:31:21.848Z,0.10
2022-10-23T00:33:49.225Z,0.00
2022-10-23T00:36:18.303Z,0.00
2022-10-23T00:38:46.172Z,0.00
2022-10-23T00:41:28.572Z,0.10
2022-10-23T00:44:18.660Z,0.10
2022-10-23T00:46:46.337Z,0.20
2022-10-23T00:49:14.630Z,0.30
2022-10-23T00:51:45.178Z,0.40
2022-10-23T00:54:29.162Z,0.50
2022-10-23T00:57:02.748Z,0.60
2022-10-23T00:59:30.291Z,0.70
2022-10-23T01:01:58.321Z,0.90
2022-10-23T01:04:26.738Z,1.00
2022-10-23T01:07:05.883Z,1.10
2022-10-23T01:09:45.981Z,1.20
2022-10-23T01:12:16.743Z,1.30
2022-10-23T01:15:01.096Z,1.40
2022-10-23T01:17:46.215Z,1.50
2022-10-23T01:20:31.751Z,1.40
2022-10-23T01:23:04.637Z,1.40
2022-10-23T01:25:52.939Z,1.50
2022-10-23T01:28:29.003Z,1.50
2022-10-23T01:30:59.537Z,1.60
2022-10-23T01:33:32.879Z,1.60
2022-10-23T01:36:04.430Z,1.60
2022-10-23T01:38:40.322Z,1.70
2022-10-23T01:41:13.240Z,1.70
2022-10-23T01:43:52.002Z,1.60
2022-10-23T01:46:19.708Z,1.60
2022-10-23T01:48:51.649Z,1.60
2022-10-23T01:51:21.131Z,1.70
2022-10-23T01:53:51.132Z,1.80
2022-10-23T01:56:26.908Z,1.80
2022-10-23T01:58:55.291Z,1.80
2022-10-23T02:01:26.288Z,1.90
2022-10-23T02:03:54.413Z,1.90
2022-10-23T02:06:21.417Z,1.90
2022-10-23T02:08:48.790Z,2.00
2022-10-23T02:11:21.199Z,2.00
2022-10-23T02:14:41.606Z,2.10
2022-10-23T02:17:28.319Z,2.10
2022-10-23T02:20:07.862Z,2.20
2022-10-23T02:22:42.675Z,2.20
2022-10-23T02:25:15.320Z,2.20
2022-10-23T02:27:54.211Z,2.10
2022-10-23T02:30:21.573Z,2.00
2022-10-23T02:32:52.648Z,2.00
2022-10-23T02:35:23.827Z,2.00
2022-10-23T02:37:58.929Z,2.00
2022-10-23T02:40:35.866Z,2.10
2022-10-23T02:43:14.823Z,2.10
2022-10-23T02:46:08.690Z,2.10
2022-10-23T02:48:54.129Z,2.00
2022-10-23T02:51:42.995Z,2.00
2022-10-23T02:54:30.750Z,2.10
2022-10-23T02:57:13.420Z,2.20
2022-10-23T02:59:50.457Z,2.20
2022-10-23T03:02:26.016Z,2.10
2022-10-23T03:04:55.406Z,2.10
2022-10-23T03:07:22.689Z,2.20
2022-10-23T03:09:49.647Z,2.10
2022-10-23T03:12:16.626Z,2.20
2022-10-23T03:14:43.579Z,2.20
2022-10-23T03:17:10.846Z,2.30
2022-10-23T03:19:37.778Z,2.30
2022-10-23T03:22:05.025Z,2.30
2022-10-23T03:24:32.051Z,2.30
2022-10-23T03:26:59.023Z,2.30
2022-10-23T03:29:26.005Z,2.30
2022-10-23T03:31:53.003Z,2.30
2022-10-23T03:34:19.974Z,2.20
2022-10-23T03:36:46.892Z,2.20
2022-10-23T03:39:13.903Z,2.20
2022-10-23T03:41:40.940Z,2.10
2022-10-23T03:44:07.934Z,2.10
2022-10-23T03:46:34.883Z,2.10
2022-10-23T03:49:04.308Z,2.10
2022-10-23T03:51:31.264Z,2.10
2022-10-23T03:53:58.227Z,2.10
2022-10-23T03:56:25.191Z,2.00
2022-10-23T03:58:52.157Z,1.90
2022-10-23T04:01:19.115Z,1.90
2022-10-23T04:03:46.144Z,1.90
2022-10-23T04:06:13.154Z,1.80
2022-10-23T04:08:42.503Z,1.70
2022-10-23T04:11:09.552Z,1.70
2022-10-23T04:13:36.578Z,1.70
2022-10-23T04:16:03.677Z,1.70
2022-10-23T04:18:30.613Z,1.60
2022-10-23T04:20:57.668Z,1.60
2022-10-23T04:23:24.672Z,1.60
2022-10-23T04:25:51.629Z,1.60
2022-10-23T04:28:18.563Z,1.60
2022-10-23T04:30:45.555Z,1.50
2022-10-23T04:33:12.548Z,1.50
2022-10-23T04:35:39.502Z,1.40
2022-10-23T04:38:06.468Z,1.40
2022-10-23T04:40:33.843Z,1.50
2022-10-23T04:43:00.883Z,1.50
2022-10-23T04:45:27.924Z,1.50
2022-10-23T04:47:56.276Z,1.50
2022-10-23T04:50:23.773Z,1.40
2022-10-23T04:52:55.063Z,1.40
2022-10-23T04:55:22.384Z,1.40
2022-10-23T04:57:49.317Z,1.40
2022-10-23T05:00:16.548Z,1.40
2022-10-23T05:02:43.802Z,1.40
2022-10-23T05:05:11.363Z,1.50
2022-10-23T05:07:38.777Z,1.50
2022-10-23T05:10:06.319Z,1.50
2022-10-23T05:12:33.280Z,1.50
2022-10-23T05:15:00.461Z,1.50
2022-10-23T05:17:33.272Z,1.50
2022-10-23T05:20:04.072Z,1.50
2022-10-23T05:22:35.195Z,1.50
2022-10-23T05:25:02.528Z,1.50
2022-10-23T05:27:29.548Z,1.60
2022-10-23T05:29:56.579Z,1.60
2022-10-23T05:32:25.953Z,1.60
2022-10-23T05:34:53.353Z,1.60
2022-10-23T05:37:20.531Z,1.60
2022-10-23T05:39:47.501Z,1.50
2022-10-23T05:42:14.484Z,1.50
2022-10-23T05:44:41.531Z,1.50
2022-10-23T05:47:08.932Z,1.50
2022-10-23T05:49:36.027Z,1.50
2022-10-23T05:52:03.057Z,1.60
2022-10-23T05:54:30.005Z,1.60
2022-10-23T05:56:57.016Z,1.60
2022-10-23T05:59:24.263Z,1.70
2022-10-23T06:01:51.375Z,1.80
2022-10-23T06:04:18.373Z,1.80
2022-10-23T06:06:46.715Z,1.80
2022-10-23T06:09:14.835Z,1.80
2022-10-23T06:11:42.771Z,1.90
2022-10-23T06:14:09.874Z,2.00
2022-10-23T06:16:36.852Z,2.00
2022-10-23T06:19:04.510Z,2.10
2022-10-23T06:21:31.519Z,2.10
2022-10-23T06:23:58.477Z,2.20
2022-10-23T06:26:25.520Z,2.30
2022-10-23T06:28:52.616Z,2.30
2022-10-23T06:31:20.420Z,2.40
2022-10-23T06:33:47.401Z,2.30
2022-10-23T06:36:14.404Z,2.40
2022-10-23T06:38:41.431Z,2.50
2022-10-23T06:41:13.727Z,2.60
2022-10-23T06:43:41.051Z,2.60
2022-10-23T06:46:08.029Z,2.70
2022-10-23T06:48:34.971Z,2.80
2022-10-23T06:51:06.997Z,2.80
2022-10-23T06:53:35.751Z,2.90
2022-10-23T06:56:05.004Z,2.90
2022-10-23T06:58:35.999Z,3.00
2022-10-23T07:01:06.408Z,3.10
2022-10-23T07:03:34.700Z,3.20
2022-10-23T07:06:06.941Z,3.30
2022-10-23T07:08:34.182Z,3.40
2022-10-23T07:11:06.220Z,3.50
2022-10-23T07:13:34.542Z,3.60
2022-10-23T07:16:14.079Z,3.60
2022-10-23T07:18:41.176Z,3.70
2022-10-23T07:21:08.357Z,3.80
2022-10-23T07:23:35.915Z,4.00
2022-10-23T07:26:08.768Z,4.10
2022-10-23T07:28:36.311Z,4.20
2022-10-23T07:31:03.702Z,4.30
2022-10-23T07:33:30.628Z,4.50
2022-10-23T07:35:57.644Z,4.70
2022-10-23T07:38:24.652Z,4.80
2022-10-23T07:40:51.710Z,5.00
2022-10-23T07:43:20.759Z,5.30
2022-10-23T07:45:49.069Z,5.50
2022-10-23T07:48:16.811Z,5.50
2022-10-23T07:50:43.898Z,5.80
2022-10-23T07:53:31.161Z,5.90
2022-10-23T07:56:00.217Z,6.10
2022-10-23T07:58:28.857Z,6.30
2022-10-23T08:01:01.570Z,6.40
2022-10-23T08:03:33.532Z,6.50
2022-10-23T08:06:00.514Z,6.90
2022-10-23T08:08:27.812Z,7.30
2022-10-23T08:10:56.214Z,7.50
2022-10-23T08:13:23.626Z,7.50
2022-10-23T08:15:52.360Z,7.20
2022-10-23T08:18:19.667Z,7.00
2022-10-23T08:20:48.641Z,6.90
2022-10-23T08:23:19.851Z,6.90
2022-10-23T08:25:47.454Z,6.80
2022-10-23T08:28:15.770Z,6.90
2022-10-23T08:30:42.789Z,7.00
2022-10-23T08:33:10.004Z,6.80
2022-10-23T08:35:39.955Z,6.90
2022-10-23T08:38:07.262Z,6.90
2022-10-23T08:40:35.912Z,7.00
2022-10-23T08:43:05.692Z,7.10
2022-10-23T08:46:08.655Z,7.20
2022-10-23T08:48:49.086Z,7.30
2022-10-23T08:51:31.859Z,7.30
2022-10-23T08:54:22.904Z,7.40
2022-10-23T08:57:00.386Z,7.40
2022-10-23T08:59:40.203Z,7.30
2022-10-23T09:02:22.768Z,7.30
2022-10-23T09:04:52.249Z,7.50
2022-10-23T09:07:58.371Z,7.60
2022-10-23T09:10:51.664Z,7.70
2022-10-23T09:13:43.672Z,7.90
2022-10-23T09:16:30.901Z,7.90
2022-10-23T09:18:58.462Z,7.90
2022-10-23T09:21:29.958Z,7.80
2022-10-23T09:23:56.983Z,7.90
2022-10-23T09:26:24.008Z,8.10
2022-10-23T09:28:56.451Z,8.20
2022-10-23T09:31:23.531Z,8.50
2022-10-23T09:33:59.843Z,9.00
2022-10-23T09:36:29.390Z,9.20
2022-10-23T09:39:00.409Z,9.20
2022-10-23T09:41:38.492Z,9.20
2022-10-23T09:44:08.463Z,9.10
2022-10-23T09:46:47.068Z,9.10
2022-10-23T09:49:26.568Z,9.30
2022-10-23T09:52:05.648Z,9.50
2022-10-23T09:54:38.405Z,9.70
2022-10-23T09:57:25.250Z,9.80
2022-10-23T09:59:54.738Z,10.00
2022-10-23T10:02:37.057Z,10.00
2022-10-23T10:05:22.727Z,9.40
2022-10-23T10:08:20.562Z,9.10
2022-10-23T10:11:06.700Z,8.80
2022-10-23T10:13:33.595Z,8.60
2022-10-23T10:16:32.564Z,8.60
2022-10-23T10:19:11.684Z,8.60
2022-10-23T10:22:01.639Z,8.80
2022-10-23T10:24:39.060Z,8.70
2022-10-23T10:27:31.761Z,8.80
2022-10-23T10:30:21.411Z,8.50
2022-10-23T10:33:11.112Z,8.40
2022-10-23T10:35:41.671Z,8.40
2022-10-23T10:38:11.429Z,8.50
2022-10-23T10:40:46.028Z,8.60
2022-10-23T10:43:42.738Z,8.60
2022-10-23T10:46:38.451Z,8.60
2022-10-23T10:49:18.666Z,8.80
2022-10-23T10:52:17.583Z,8.80
2022-10-23T10:55:02.734Z,9.00
2022-10-23T10:57:42.103Z,9.00
2022-10-23T11:00:21.362Z,9.10
2022-10-23T11:02:53.678Z,9.10
2022-10-23T11:05:38.354Z,9.20
2022-10-23T11:08:40.216Z,9.10
2022-10-23T11:11:38.061Z,9.10
2022-10-23T11:14:05.164Z,9.20
2022-10-23T11:16:39.324Z,9.10
2022-10-23T11:19:18.256Z,9.10
2022-10-23T11:22:05.435Z,9.10
2022-10-23T11:24:58.164Z,9.10
2022-10-23T11:27:52.429Z,9.10
2022-10-23T11:30:58.392Z,9.00
2022-10-23T11:33:46.151Z,9.10
2022-10-23T11:36:32.353Z,8.90
2022-10-23T11:39:27.639Z,8.70
2022-10-23T11:42:19.515Z,8.80
2022-10-23T11:44:48.507Z,9.00
2022-10-23T11:47:38.878Z,8.90
2022-10-23T11:50:09.454Z,8.90
2022-10-23T11:52:45.738Z,8.70
2022-10-23T11:55:20.679Z,8.70
2022-10-23T11:58:24.206Z,8.70
2022-10-23T12:01:15.690Z,8.80
2022-10-23T12:04:15.284Z,8.70
2022-10-23T12:07:04.847Z,8.70
2022-10-23T12:09:36.187Z,8.70
2022-10-23T12:12:08.680Z,8.80
2022-10-23T12:14:43.156Z,8.90
2022-10-23T12:17:25.423Z,8.80
2022-10-23T12:19:55.051Z,8.90
2022-10-23T12:22:26.547Z,8.80
2022-10-23T12:25:08.622Z,8.80
2022-10-23T12:27:46.017Z,8.60
2022-10-23T12:30:29.090Z,8.60
2022-10-23T12:33:21.096Z,8.50
2022-10-23T12:35:53.871Z,8.50
2022-10-23T12:38:26.424Z,8.60
2022-10-23T12:41:13.761Z,8.50
2022-10-23T12:43:42.767Z,8.50
2022-10-23T12:46:31.066Z,8.60
2022-10-23T12:48:59.553Z,8.70
2022-10-23T12:51:32.790Z,8.70
2022-10-23T12:54:00.397Z,8.70
2022-10-23T12:56:30.531Z,8.70
2022-10-23T12:59:04.032Z,8.90
2022-10-23T13:01:33.690Z,9.00
2022-10-23T13:04:27.909Z,9.00
2022-10-23T13:06:57.258Z,9.00
2022-10-23T13:09:26.200Z,8.80
2022-10-23T13:11:54.750Z,8.70
2022-10-23T13:14:35.152Z,8.40
2022-10-23T13:17:05.360Z,8.30
2022-10-23T13:19:32.778Z,8.20
2022-10-23T13:22:00.829Z,8.10
2022-10-23T13:24:29.999Z,8.00
2022-10-23T13:26:57.926Z,8.00
2022-10-23T13:29:31.200Z,8.00
2022-10-23T13:32:09.314Z,8.10
2022-10-23T13:34:36.292Z,8.10
2022-10-23T13:37:27.065Z,8.00
2022-10-23T13:40:19.939Z,8.00
2022-10-23T13:42:51.757Z,8.00
2022-10-23T13:45:22.106Z,7.80
2022-10-23T13:47:49.250Z,7.70
2022-10-23T13:50:16.513Z,7.60
2022-10-23T13:52:43.463Z,7.50
2022-10-23T13:55:25.666Z,7.50
2022-10-23T13:57:52.891Z,7.50
2022-10-23T14:00:19.959Z,7.50
2022-10-23T14:02:46.958Z,7.50
2022-10-23T14:05:14.010Z,7.50
2022-10-23T14:07:41.103Z,7.40
2022-10-23T14:10:08.633Z,7.40
2022-10-23T14:12:43.157Z,7.20
2022-10-23T14:15:11.483Z,7.10
2022-10-23T14:17:38.592Z,7.20
2022-10-23T14:20:06.537Z,7.10
2022-10-23T14:22:33.724Z,7.00
2022-10-23T14:25:00.651Z,7.00
2022-10-23T14:27:28.047Z,6.90
2022-10-23T14:29:54.992Z,6.90
2022-10-23T14:32:21.997Z,6.90
2022-10-23T14:34:53.877Z,6.90
2022-10-23T14:37:21.866Z,6.80
2022-10-23T14:39:50.226Z,6.70
2022-10-23T14:42:18.073Z,6.60
2022-10-23T14:44:45.302Z,6.60
2022-10-23T14:47:12.320Z,6.50
2022-10-23T14:49:40.407Z,6.40
2022-10-23T14:52:07.591Z,6.30
2022-10-23T14:54:36.369Z,6.20
2022-10-23T14:57:03.773Z,6.10
2022-10-23T14:59:30.945Z,6.00
2022-10-23T15:01:57.990Z,5.90
2022-10-23T15:04:24.940Z,5.90
2022-10-23T15:06:52.067Z,5.80
2022-10-23T15:09:20.288Z,5.80
2022-10-23T15:11:47.894Z,5.70
2022-10-23T15:14:14.943Z,5.60
2022-10-23T15:16:42.222Z,5.60
2022-10-23T15:19:13.741Z,5.50
2022-10-23T15:21:44.623Z,5.50
2022-10-23T15:24:11.576Z,5.50
2022-10-23T15:26:39.553Z,5.40
2022-10-23T15:29:06.708Z,5.40
2022-10-23T15:31:37.616Z,5.40
2022-10-23T15:34:05.668Z,5.40
2022-10-23T15:36:32.810Z,5.30
2022-10-23T15:38:59.853Z,5.30
2022-10-23T15:41:32.239Z,5.30
2022-10-23T15:43:59.893Z,5.20
2022-10-23T15:46:27.151Z,5.10
2022-10-23T15:48:54.318Z,5.10
2022-10-23T15:51:21.621Z,5.10
2022-10-23T15:53:48.762Z,5.00
2022-10-23T15:56:15.723Z,4.90
2022-10-23T15:58:42.963Z,4.90
2022-10-23T16:01:10.084Z,4.80
2022-10-23T16:03:38.713Z,4.70
2022-10-23T16:06:11.099Z,4.60
2022-10-23T16:08:38.687Z,4.50
2022-10-23T16:11:23.008Z,4.40
2022-10-23T16:13:50.386Z,4.30
2022-10-23T16:16:18.054Z,4.20
2022-10-23T16:18:46.477Z,4.10
2022-10-23T16:21:20.049Z,4.00
2022-10-23T16:23:47.079Z,4.00
2022-10-23T16:26:14.788Z,3.80
2022-10-23T16:28:43.936Z,3.80
2022-10-23T16:31:19.954Z,3.70
2022-10-23T16:33:48.775Z,3.60
2022-10-23T16:36:16.227Z,3.50
2022-10-23T16:38:43.199Z,3.40
2022-10-23T16:41:10.504Z,3.40
2022-10-23T16:43:40.097Z,3.30
2022-10-23T16:46:19.043Z,3.20
2022-10-23T16:48:47.130Z,3.20
2022-10-23T16:51:17.159Z,3.20
2022-10-23T16:53:44.751Z,3.10
2022-10-23T16:56:13.622Z,3.10
2022-10-23T16:58:43.808Z,3.10
2022-10-23T17:01:12.466Z,3.10
2022-10-23T17:03:42.806Z,3.00
2022-10-23T17:06:14.559Z,2.90
2022-10-23T17:08:41.944Z,2.90
2022-10-23T17:11:20.798Z,2.90
2022-10-23T17:14:12.927Z,2.90
2022-10-23T17:16:44.567Z,2.90
2022-10-23T17:19:21.009Z,2.80
2022-10-23T17:21:55.936Z,2.70
2022-10-23T17:24:23.706Z,2.70
2022-10-23T17:26:51.214Z,2.80
2022-10-23T17:29:18.500Z,2.80
2022-10-23T17:31:48.532Z,2.80
2022-10-23T17:34:21.998Z,2.80
2022-10-23T17:36:51.884Z,2.70
2022-10-23T17:39:24.276Z,2.70
2022-10-23T17:41:51.471Z,2.60
2022-10-23T17:44:18.740Z,2.60
2022-10-23T17:46:45.926Z,2.60
2022-10-23T17:49:13.351Z,2.50
2022-10-23T17:51:40.444Z,2.50
2022-10-23T17:54:11.216Z,2.50
2022-10-23T17:56:38.863Z,2.50
2022-10-23T17:59:14.287Z,2.50
2022-10-23T18:01:43.808Z,2.50
2022-10-23T18:04:11.171Z,2.50
2022-10-23T18:06:47.130Z,2.40
2022-10-23T18:09:14.539Z,2.50
2022-10-23T18:11:45.570Z,2.50
2022-10-23T18:14:15.398Z,2.40
2022-10-23T18:16:42.431Z,2.30
2022-10-23T18:19:10.589Z,2.30
2022-10-23T18:21:38.086Z,2.30
2022-10-23T18:24:05.383Z,2.20
2022-10-23T18:26:35.213Z,2.10
2022-10-23T18:29:07.151Z,2.10
2022-10-23T18:31:35.938Z,2.00
2022-10-23T18:34:16.059Z,2.00
2022-10-23T18:36:43.189Z,1.90
2022-10-23T18:39:13.425Z,1.90
2022-10-23T18:41:43.477Z,1.90
2022-10-23T18:44:13.927Z,1.90
2022-10-23T18:46:40.853Z,2.00
2022-10-23T18:49:07.856Z,2.00
2022-10-23T18:51:35.776Z,2.10
2022-10-23T18:54:10.509Z,2.10
2022-10-23T18:56:38.396Z,2.10
2022-10-23T18:59:08.227Z,2.20
2022-10-23T19:01:35.649Z,2.20
2022-10-23T19:04:03.036Z,2.20
2022-10-23T19:06:31.366Z,2.20
2022-10-23T19:08:58.967Z,2.20
2022-10-23T19:11:27.456Z,2.20
2022-10-23T19:13:54.455Z,2.10
2022-10-23T19:16:27.542Z,2.10
2022-10-23T19:19:03.015Z,2.00
2022-10-23T19:21:35.434Z,2.10
2022-10-23T19:24:07.293Z,2.10
2022-10-23T19:26:35.913Z,2.10
2022-10-23T19:29:04.364Z,2.10
2022-10-23T19:31:31.779Z,2.10
2022-10-23T19:33:58.781Z,2.00
2022-10-23T19:36:25.881Z,2.10
2022-10-23T19:38:52.902Z,2.00
2022-10-23T19:41:19.945Z,2.10
2022-10-23T19:43:46.943Z,2.10
2022-10-23T19:46:13.933Z,2.10
2022-10-23T19:48:45.021Z,2.10
2022-10-23T19:51:13.342Z,2.10
2022-10-23T19:53:42.009Z,2.10
2022-10-23T19:56:11.698Z,2.10
2022-10-23T19:58:39.731Z,2.20
2022-10-23T20:01:15.319Z,2.20
2022-10-23T20:03:45.480Z,2.20
2022-10-23T20:06:14.338Z,2.20
2022-10-23T20:08:41.527Z,2.20
2022-10-23T20:11:10.156Z,2.30
2022-10-23T20:13:37.291Z,2.30
2022-10-23T20:16:04.486Z,2.30
2022-10-23T20:18:31.501Z,2.40
2022-10-23T20:21:02.211Z,2.40
2022-10-23T20:23:29.207Z,2.40
2022-10-23T20:26:07.252Z,2.40
2022-10-23T20:28:34.297Z,2.40
2022-10-23T20:31:11.689Z,2.40
2022-10-23T20:33:40.631Z,2.50
2022-10-23T20:36:10.098Z,2.50
2022-10-23T20:38:37.075Z,2.50
2022-10-23T20:41:05.844Z,2.50
2022-10-23T20:43:35.572Z,2.50
2022-10-23T20:46:07.520Z,2.40
2022-10-23T20:48:39.358Z,2.40
2022-10-23T20:51:08.815Z,2.40
2022-10-23T20:53:38.399Z,2.30
2022-10-23T20:56:10.086Z,2.30
2022-10-23T20:58:37.106Z,2.20
2022-10-23T21:01:09.274Z,2.20
2022-10-23T21:03:37.302Z,2.10
2022-10-23T21:06:09.703Z,2.00
2022-10-23T21:08:37.679Z,1.90
2022-10-23T21:11:05.059Z,1.90
2022-10-23T21:13:32.161Z,1.80
2022-10-23T21:15:59.199Z,1.70
2022-10-23T21:18:44.889Z,1.60
2022-10-23T21:21:12.991Z,1.60
2022-10-23T21:23:40.404Z,1.50
2022-10-23T21:26:07.861Z,1.40
2022-10-23T21:28:35.699Z,1.40
2022-10-23T21:31:08.011Z,1.40
2022-10-23T21:33:36.745Z,1.40
2022-10-23T21:36:13.640Z,1.30
2022-10-23T21:38:41.176Z,1.30
2022-10-23T21:41:09.919Z,1.30
2022-10-23T21:43:36.884Z,1.30
2022-10-23T21:46:11.939Z,1.30
2022-10-23T21:48:39.371Z,1.20
2022-10-23T21:51:06.893Z,1.20
2022-10-23T21:53:33.939Z,1.10
2022-10-23T21:56:04.751Z,1.00
2022-10-23T21:58:32.398Z,1.00
2022-10-23T22:01:00.602Z,1.00
2022-10-23T22:03:27.657Z,1.00
2022-10-23T22:05:54.670Z,0.90
2022-10-23T22:08:21.668Z,1.00
2022-10-23T22:10:48.723Z,0.90
2022-10-23T22:13:15.677Z,0.90
2022-10-23T22:15:42.654Z,0.90
2022-10-23T22:18:09.648Z,0.90
2022-10-23T22:20:36.599Z,0.80
2022-10-23T22:23:03.591Z,0.80
2022-10-23T22:25:31.209Z,0.80
2022-10-23T22:27:58.348Z,0.80
2022-10-23T22:30:25.295Z,0.80
2022-10-23T22:32:52.279Z,0.70
2022-10-23T22:35:19.236Z,0.80
2022-10-23T22:37:46.270Z,0.80
2022-10-23T22:40:13.334Z,0.80
2022-10-23T22:42:40.269Z,0.70
2022-10-23T22:45:07.904Z,0.60
2022-10-23T22:47:34.832Z,0.60
2022-10-23T22:50:01.789Z,0.60
2022-10-23T22:52:28.755Z,0.50
2022-10-23T22:54:55.703Z,0.40
2022-10-23T22:57:22.751Z,0.30
2022-10-23T22:59:49.737Z,0.20
2022-10-23T23:02:16.686Z,0.10
2022-10-23T23:04:43.728Z,0.10
2022-10-23T23:07:12.828Z,0.10
2022-10-23T23:09:41.961Z,0.10
2022-10-23T23:12:11.546Z,0.10
2022-10-23T23:14:39.104Z,0.10
2022-10-23T23:17:07.845Z,0.10
2022-10-23T23:19:34.985Z,0.20
2022-10-23T23:22:02.266Z,0.10
2022-10-23T23:24:29.315Z,0.00
2022-10-23T23:26:56.352Z,-0.10
2022-10-23T23:29:23.409Z,-0.10
2022-10-23T23:31:50.410Z,-0.10
2022-10-23T23:34:17.359Z,0.00
2022-10-23T23:36:44.408Z,0.10
2022-10-23T23:39:11.616Z,0.10
2022-10-23T23:41:39.104Z,0.00
2022-10-23T23:44:06.674Z,0.00
2022-10-23T23:46:33.866Z,-0.10
2022-10-23T23:49:00.830Z,-0.20
2022-10-23T23:51:27.771Z,-0.20
2022-10-23T23:53:54.982Z,-0.20
2022-10-23T23:56:22.365Z,-0.10
2022-10-23T23:58:49.531Z,-0.10
